Time;durP1;ratioP1;P1;durP2;ratioP2;P2;SDS_P1;SDS_P2;PMS_P1;PMS_P2;Temp;Humidity;BMP_temperature;BMP_pressure;BME280_temperature;BME280_humidity;BME280_pressure;Samples;Min_cycle;Max_cycle;Signal;HPM_P1;HPM_P2
2023/09/11 00:00:19;;;;;;;19.17;11.15;;;;;;;22.74;100.00;101348.91;5003871;28;20033;-78
2023/09/11 00:02:44;;;;;;;18.40;13.65;;;;;;;22.72;100.00;101337.13;5004606;28;20112;-78
2023/09/11 00:05:10;;;;;;;19.30;12.57;;;;;;;22.71;100.00;101334.75;5000677;28;20587;-78
2023/09/11 00:07:36;;;;;;;21.40;13.30;;;;;;;22.74;100.00;101333.84;5005103;28;20034;-78
2023/09/11 00:10:02;;;;;;;18.92;12.50;;;;;;;22.70;100.00;101328.22;5001527;28;20591;-78
2023/09/11 00:12:28;;;;;;;18.52;13.70;;;;;;;22.66;100.00;101326.72;5006174;23;20006;-80
2023/09/11 00:14:53;;;;;;;16.88;11.73;;;;;;;22.69;100.00;101317.28;5008960;28;20048;-81
2023/09/11 00:17:18;;;;;;;23.13;11.65;;;;;;;22.67;100.00;101316.94;5001396;28;20038;-81
2023/09/11 00:19:44;;;;;;;18.80;12.88;;;;;;;22.63;100.00;101307.69;5024559;28;20021;-83
2023/09/11 00:22:09;;;;;;;17.73;12.25;;;;;;;22.57;100.00;101313.13;5002635;28;20029;-81
2023/09/11 00:24:34;;;;;;;18.98;11.45;;;;;;;22.57;100.00;101306.63;5017182;28;20033;-81
2023/09/11 00:27:00;;;;;;;17.73;12.35;;;;;;;22.61;100.00;101304.47;5023100;28;20341;-83
2023/09/11 00:29:25;;;;;;;19.38;11.52;;;;;;;22.61;100.00;101304.47;5016474;28;20021;-82
2023/09/11 00:31:51;;;;;;;20.75;12.10;;;;;;;22.56;100.00;101299.31;5014204;28;20087;-82
2023/09/11 00:34:17;;;;;;;19.40;12.27;;;;;;;22.52;100.00;101299.44;5009511;28;20053;-82
2023/09/11 00:36:42;;;;;;;16.00;11.32;;;;;;;22.51;100.00;101287.19;5011123;28;20032;-82
2023/09/11 00:39:07;;;;;;;21.45;13.68;;;;;;;22.55;100.00;101297.72;4997711;28;20037;-82
2023/09/11 00:41:33;;;;;;;19.13;12.25;;;;;;;22.50;100.00;101294.16;5000252;28;20119;-82
2023/09/11 00:43:58;;;;;;;18.10;11.95;;;;;;;22.46;100.00;101289.81;5015217;28;20143;-82
2023/09/11 00:46:24;;;;;;;14.35;11.73;;;;;;;22.45;100.00;101294.72;5004599;28;20121;-82
2023/09/11 00:48:55;;;;;;;17.05;12.05;;;;;;;22.44;100.00;101293.13;5020466;28;20552;-82
2023/09/11 00:51:21;;;;;;;22.97;13.70;;;;;;;22.42;100.00;101286.28;5011293;28;20493;-82
2023/09/11 00:53:47;;;;;;;18.70;12.45;;;;;;;22.41;100.00;101288.31;5000823;28;20022;-82
2023/09/11 00:56:12;;;;;;;19.50;12.13;;;;;;;22.42;100.00;101289.13;5018224;28;20076;-82
2023/09/11 00:58:38;;;;;;;22.45;12.05;;;;;;;22.37;100.00;101281.91;4995243;28;20029;-82
2023/09/11 01:01:04;;;;;;;17.95;11.95;;;;;;;22.37;100.00;101287.63;5012986;28;20051;-82
2023/09/11 01:03:30;;;;;;;16.65;12.25;;;;;;;22.35;100.00;101278.72;5001038;28;20068;-83
2023/09/11 01:05:56;;;;;;;21.23;13.40;;;;;;;22.34;100.00;101282.81;5006752;28;20058;-83
2023/09/11 01:08:22;;;;;;;16.83;11.85;;;;;;;22.32;100.00;101274.69;5011559;28;20021;-83
2023/09/11 01:10:48;;;;;;;23.33;12.95;;;;;;;22.31;100.00;101286.56;5006228;28;20040;-83
2023/09/11 01:13:14;;;;;;;19.30;12.88;;;;;;;22.29;100.00;101286.22;4993451;28;20064;-83
2023/09/11 01:16:08;;;;;;;25.50;14.02;;;;;;;22.27;100.00;101283.03;5006282;28;21331;-82
2023/09/11 01:18:50;;;;;;;20.20;12.95;;;;;;;22.23;100.00;101279.47;5005149;28;20127;-82
2023/09/11 01:21:20;;;;;;;16.70;12.07;;;;;;;22.24;100.00;101283.91;4985614;28;20049;-82
2023/09/11 01:24:13;;;;;;;26.17;12.25;;;;;;;22.21;100.00;101284.78;4995902;28;20034;-82
2023/09/11 01:26:48;;;;;;;23.08;13.50;;;;;;;22.18;100.00;101288.50;5007502;28;20044;-82
2023/09/11 01:29:20;;;;;;;19.98;13.32;;;;;;;22.13;100.00;101282.09;5008128;28;20033;-82
2023/09/11 01:31:47;;;;;;;18.23;11.82;;;;;;;22.03;100.00;101273.84;5002557;28;20805;-82
2023/09/11 01:34:12;;;;;;;18.73;12.15;;;;;;;22.04;100.00;101276.25;5003775;28;20478;-82
2023/09/11 01:36:38;;;;;;;22.17;13.55;;;;;;;21.99;100.00;101273.97;5004281;28;20049;-82
2023/09/11 01:39:04;;;;;;;23.95;12.27;;;;;;;21.98;100.00;101278.06;5002465;28;20034;-81
2023/09/11 01:41:41;;;;;;;16.48;11.93;;;;;;;22.07;100.00;101275.38;4985707;28;20152;-82
2023/09/11 01:44:18;;;;;;;18.05;11.52;;;;;;;22.08;100.00;101270.47;4990291;28;20661;-82
2023/09/11 01:46:45;;;;;;;21.90;13.65;;;;;;;21.96;100.00;101274.84;4987027;28;20087;-81
2023/09/11 01:49:13;;;;;;;18.77;13.30;;;;;;;21.87;100.00;101272.63;5007864;28;20040;-82
2023/09/11 01:51:41;;;;;;;22.92;14.73;;;;;;;21.96;100.00;101274.06;4997932;28;20036;-82
2023/09/11 01:54:08;;;;;;;18.85;11.77;;;;;;;21.98;100.00;101269.50;4996506;28;20058;-82
2023/09/11 01:56:33;;;;;;;22.98;12.20;;;;;;;22.04;100.00;101270.56;4983422;28;20101;-82
2023/09/11 01:58:59;;;;;;;18.63;12.45;;;;;;;22.05;100.00;101260.78;4989562;28;20029;-82
2023/09/11 02:01:26;;;;;;;26.42;13.60;;;;;;;22.00;100.00;101260.50;5003213;28;20049;-82
2023/09/11 02:03:51;;;;;;;16.33;11.90;;;;;;;22.02;100.00;101261.66;5011021;28;20034;-82
2023/09/11 02:06:17;;;;;;;17.52;12.85;;;;;;;22.02;100.00;101261.66;5002961;28;20686;-82
2023/09/11 02:08:42;;;;;;;20.25;13.43;;;;;;;21.98;100.00;101263.81;5005783;28;20049;-82
2023/09/11 02:11:07;;;;;;;17.77;11.73;;;;;;;21.99;100.00;101256.88;5002671;28;20034;-82
2023/09/11 02:13:34;;;;;;;19.73;14.73;;;;;;;21.92;100.00;101257.88;4989968;28;20074;-82
2023/09/11 02:15:59;;;;;;;20.75;13.50;;;;;;;21.99;100.00;101261.75;4982494;28;20045;-82
2023/09/11 02:18:24;;;;;;;20.98;13.93;;;;;;;21.91;100.00;101255.44;4988561;28;20035;-82
2023/09/11 02:20:50;;;;;;;16.92;11.45;;;;;;;21.96;100.00;101257.75;4981940;28;20197;-83
2023/09/11 02:23:16;;;;;;;20.70;13.15;;;;;;;21.91;100.00;101252.59;4984951;28;20048;-82
2023/09/11 02:25:41;;;;;;;21.10;12.15;;;;;;;21.88;100.00;101247.78;4989585;28;20073;-82
2023/09/11 02:28:07;;;;;;;25.50;12.93;;;;;;;21.87;100.00;101249.03;4980712;28;20026;-81
2023/09/11 02:30:32;;;;;;;23.67;13.43;;;;;;;21.82;100.00;101241.03;4984808;28;20133;-82
2023/09/11 02:32:58;;;;;;;22.58;12.93;;;;;;;21.83;100.00;101242.63;4989879;28;20035;-81
2023/09/11 02:35:23;;;;;;;19.45;12.80;;;;;;;21.83;100.00;101237.72;4984745;28;20034;-82
2023/09/11 02:37:49;;;;;;;21.30;12.25;;;;;;;21.82;100.00;101241.03;4985868;28;20038;-82
2023/09/11 02:40:14;;;;;;;19.40;13.88;;;;;;;21.74;100.00;101234.72;4991676;28;20026;-81
2023/09/11 02:42:40;;;;;;;20.75;13.40;;;;;;;21.76;100.00;101237.94;4987999;28;20030;-82
2023/09/11 02:45:05;;;;;;;19.85;13.20;;;;;;;21.78;100.00;101234.63;4982077;28;20061;-82
2023/09/11 02:47:31;;;;;;;24.88;15.82;;;;;;;21.75;100.00;101229.81;4989346;28;20387;-82
2023/09/11 02:49:56;;;;;;;16.70;13.10;;;;;;;21.68;100.00;101231.63;4994872;28;20037;-82
2023/09/11 02:52:21;;;;;;;20.73;12.68;;;;;;;21.71;100.00;101225.03;4991072;28;20821;-82
2023/09/11 02:54:47;;;;;;;23.75;13.55;;;;;;;21.70;100.00;101226.28;4986328;28;20053;-81
2023/09/11 02:57:12;;;;;;;19.25;13.75;;;;;;;21.66;100.00;101217.00;4992249;28;20049;-81
2023/09/11 02:59:38;;;;;;;28.02;15.07;;;;;;;21.64;100.00;101216.66;4988153;28;20034;-82
2023/09/11 03:02:03;;;;;;;23.38;15.63;;;;;;;21.63;100.00;101212.22;4987452;28;20112;-82
2023/09/11 03:04:29;;;;;;;23.90;14.43;;;;;;;21.58;100.00;101209.91;4984818;28;20034;-82
2023/09/11 03:06:54;;;;;;;25.33;13.73;;;;;;;21.65;100.00;101215.44;4973245;28;20031;-82
2023/09/11 03:09:20;;;;;;;30.92;17.17;;;;;;;21.59;100.00;101199.31;4984655;28;20109;-82
2023/09/11 03:11:45;;;;;;;23.52;16.17;;;;;;;21.59;100.00;101214.38;4979949;28;20066;-82
2023/09/11 03:14:12;;;;;;;26.23;16.63;;;;;;;21.54;100.00;101203.50;4984381;28;20046;-82
2023/09/11 03:16:44;;;;;;;22.88;14.30;;;;;;;21.56;100.00;101197.34;4984370;28;20029;-81
2023/09/11 03:19:10;;;;;;;21.88;14.55;;;;;;;21.60;100.00;101195.22;4996887;28;20034;-81
2023/09/11 03:21:36;;;;;;;23.00;14.55;;;;;;;21.48;100.00;101191.03;4989219;28;20034;-81
2023/09/11 03:24:02;;;;;;;24.65;16.33;;;;;;;21.49;100.00;101189.81;4983135;28;20442;-82
2023/09/11 03:26:28;;;;;;;25.80;14.43;;;;;;;21.51;100.00;101184.47;4998537;28;20026;-81
2023/09/11 03:28:53;;;;;;;25.88;15.65;;;;;;;21.51;100.00;101181.63;4987843;28;20077;-82
2023/09/11 03:31:19;;;;;;;24.23;15.32;;;;;;;21.51;100.00;101178.78;4983672;28;20088;-82
2023/09/11 03:33:45;;;;;;;26.75;14.23;;;;;;;21.51;100.00;101176.72;4985711;28;20030;-83
2023/09/11 03:36:16;;;;;;;18.20;12.15;;;;;;;21.44;100.00;101176.09;4988673;28;20454;-82
2023/09/11 03:38:41;;;;;;;21.20;15.18;;;;;;;21.43;100.00;101175.28;4990825;28;20026;-81
2023/09/11 03:41:06;;;;;;;20.65;14.43;;;;;;;21.46;100.00;101179.28;4987563;28;20565;-82
2023/09/11 03:43:32;;;;;;;26.13;15.88;;;;;;;21.30;100.00;101163.78;4980385;28;20022;-82
2023/09/11 03:45:57;;;;;;;27.38;17.58;;;;;;;21.35;100.00;101162.47;4984051;28;20121;-82
2023/09/11 03:48:22;;;;;;;22.55;14.70;;;;;;;21.37;100.00;101164.88;4986682;28;20045;-82
2023/09/11 03:50:51;;;;;;;21.85;14.23;;;;;;;21.36;100.00;101163.28;4989296;28;20038;-82
2023/09/11 03:53:16;;;;;;;23.08;15.98;;;;;;;21.25;100.00;101152.97;4986066;28;20084;-83
2023/09/11 03:55:42;;;;;;;21.98;14.02;;;;;;;21.31;100.00;101154.03;4999525;28;20052;-81
2023/09/11 03:58:07;;;;;;;28.65;14.77;;;;;;;21.37;100.00;101156.31;4984778;28;20037;-82
2023/09/11 04:00:32;;;;;;;23.08;15.68;;;;;;;21.35;100.00;101155.97;4981363;28;20129;-81
2023/09/11 04:02:58;;;;;;;24.48;15.88;;;;;;;21.36;100.00;101154.72;4993022;28;20034;-81
2023/09/11 04:05:23;;;;;;;20.30;13.85;;;;;;;21.41;100.00;101154.19;4976153;28;20062;-83
2023/09/11 04:07:48;;;;;;;23.00;12.77;;;;;;;21.44;100.00;101153.31;4981251;28;20088;-82
2023/09/11 04:10:14;;;;;;;23.83;15.02;;;;;;;21.30;100.00;101146.72;4992630;28;20401;-81
2023/09/11 04:12:39;;;;;;;23.67;14.07;;;;;;;21.30;100.00;101135.31;4985999;28;20038;-81
2023/09/11 04:15:05;;;;;;;22.65;14.93;;;;;;;21.29;100.00;101150.81;4982927;28;20026;-82
2023/09/11 04:17:31;;;;;;;21.20;15.50;;;;;;;21.20;100.00;101139.25;4998169;28;20067;-82
2023/09/11 04:19:56;;;;;;;27.60;16.40;;;;;;;21.25;100.00;101147.25;5010430;28;20437;-82
2023/09/11 04:22:21;;;;;;;19.55;13.80;;;;;;;21.08;100.00;101137.94;4992275;28;21722;-82
2023/09/11 04:24:47;;;;;;;25.48;16.75;;;;;;;21.15;100.00;101139.00;4988213;28;20382;-82
2023/09/11 04:27:12;;;;;;;31.08;16.23;;;;;;;21.15;100.00;101145.50;4989599;28;20044;-82
2023/09/11 04:29:39;;;;;;;26.45;17.77;;;;;;;21.16;100.00;101138.53;4980983;28;20059;-82
2023/09/11 04:32:04;;;;;;;33.72;20.65;;;;;;;21.12;100.00;101137.81;4994053;28;20038;-82
2023/09/11 04:34:30;;;;;;;23.77;14.88;;;;;;;21.22;100.00;101142.44;4988658;28;20573;-82
2023/09/11 04:36:55;;;;;;;22.15;14.70;;;;;;;21.22;100.00;101142.44;5010052;28;20144;-82
2023/09/11 04:39:23;;;;;;;27.52;16.80;;;;;;;21.15;100.00;101131.25;5007146;28;20044;-83
2023/09/11 04:41:49;;;;;;;23.80;15.48;;;;;;;21.07;100.00;101124.94;5007340;28;20482;-82
2023/09/11 04:44:14;;;;;;;24.38;16.50;;;;;;;21.03;100.00;101129.13;5001620;28;20026;-82
2023/09/11 04:46:40;;;;;;;28.52;17.15;;;;;;;21.08;100.00;101137.09;5003499;28;20026;-82
2023/09/11 04:49:05;;;;;;;30.88;18.17;;;;;;;21.04;100.00;101128.69;5010961;28;20439;-82
2023/09/11 04:51:31;;;;;;;24.25;16.38;;;;;;;21.06;100.00;101122.53;5007589;28;20041;-82
2023/09/11 04:53:57;;;;;;;27.88;16.08;;;;;;;21.06;100.00;101123.34;5014177;28;20026;-82
2023/09/11 04:56:22;;;;;;;24.63;16.35;;;;;;;21.03;100.00;101127.06;5004137;28;20026;-82
2023/09/11 04:58:47;;;;;;;26.42;16.88;;;;;;;21.09;100.00;101121.66;5004360;28;20095;-82
2023/09/11 05:01:13;;;;;;;30.30;16.33;;;;;;;21.07;100.00;101118.44;5001699;28;20021;-82
2023/09/11 05:03:39;;;;;;;25.48;17.25;;;;;;;21.00;100.00;101130.03;4981019;28;20029;-81
2023/09/11 05:06:05;;;;;;;25.50;15.63;;;;;;;20.98;100.00;101118.28;4995647;28;20034;-82
2023/09/11 05:08:30;;;;;;;21.77;14.43;;;;;;;21.00;100.00;101113.75;5001651;28;20029;-81
2023/09/11 05:10:55;;;;;;;32.70;17.80;;;;;;;20.99;100.00;101111.34;4987019;28;20043;-82
2023/09/11 05:13:21;;;;;;;23.60;16.27;;;;;;;21.01;100.00;101108.84;4978015;28;20129;-82
2023/09/11 05:15:48;;;;;;;27.02;16.67;;;;;;;21.03;100.00;101110.00;4998937;28;20395;-82
2023/09/11 05:18:14;;;;;;;24.13;16.10;;;;;;;21.14;100.00;101117.47;4980390;28;20105;-81
2023/09/11 05:20:40;;;;;;;26.35;16.30;;;;;;;21.11;100.00;101119.16;4979048;28;20580;-81
2023/09/11 05:23:05;;;;;;;25.00;15.32;;;;;;;21.15;100.00;101111.34;4981675;28;20030;-82
2023/09/11 05:25:31;;;;;;;20.48;15.32;;;;;;;21.09;100.00;101119.59;4974487;28;20228;-81
2023/09/11 05:27:56;;;;;;;31.90;19.98;;;;;;;21.02;100.00;101121.81;4982286;28;20088;-82
2023/09/11 05:30:22;;;;;;;23.00;16.02;;;;;;;20.92;100.00;101121.66;4976889;28;20029;-82
2023/09/11 05:32:51;;;;;;;23.88;16.38;;;;;;;20.99;100.00;101125.56;4987737;28;20026;-82
2023/09/11 05:35:17;;;;;;;23.13;16.38;;;;;;;21.10;100.00;101112.69;4989101;28;20165;-83
2023/09/11 05:37:43;;;;;;;28.08;18.33;;;;;;;21.03;100.00;101112.84;4988673;28;20038;-82
2023/09/11 05:40:08;;;;;;;30.88;19.70;;;;;;;21.05;100.00;101112.41;4980146;28;20026;-81
2023/09/11 05:42:34;;;;;;;26.30;17.67;;;;;;;21.00;100.00;101115.78;4983124;28;20113;-82
2023/09/11 05:44:59;;;;;;;31.35;17.00;;;;;;;21.07;100.00;101118.44;4977161;28;20022;-82
2023/09/11 05:47:25;;;;;;;30.75;19.67;;;;;;;21.14;100.00;101117.47;4980941;28;20135;-84
2023/09/11 05:49:50;;;;;;;28.80;19.08;;;;;;;21.01;100.00;101115.31;4998141;28;20052;-84
2023/09/11 05:52:16;;;;;;;22.23;16.02;;;;;;;20.95;100.00;101122.00;4985505;28;20046;-85
2023/09/11 05:54:41;;;;;;;25.48;15.07;;;;;;;21.72;100.00;101121.22;4970478;28;20033;-87
2023/09/11 05:57:07;;;;;;;22.02;14.57;;;;;;;22.29;100.00;101120.84;4982557;28;20039;-88
2023/09/11 05:59:33;;;;;;;26.52;17.10;;;;;;;22.09;100.00;101121.78;4973671;28;20538;-86
2023/09/11 06:01:58;;;;;;;24.17;17.60;;;;;;;21.65;100.00;101129.16;4973851;28;20668;-87
2023/09/11 06:04:23;;;;;;;26.42;18.35;;;;;;;21.51;100.00;101130.34;4987968;28;20022;-86
2023/09/11 06:06:49;;;;;;;26.63;18.30;;;;;;;21.53;100.00;101119.31;4985285;28;20038;-86
2023/09/11 06:09:14;;;;;;;28.33;19.08;;;;;;;21.84;100.00;101113.16;4998753;28;20038;-85
2023/09/11 06:11:39;;;;;;;31.70;19.75;;;;;;;21.83;100.00;101125.81;4983475;28;20518;-85
2023/09/11 06:14:07;;;;;;;34.15;19.55;;;;;;;22.22;100.00;101129.56;4994391;28;20038;-86
2023/09/11 06:16:32;;;;;;;27.73;20.10;;;;;;;22.12;100.00;101128.63;4976627;28;20523;-85
2023/09/11 06:18:58;;;;;;;30.88;18.38;;;;;;;22.66;100.00;101138.41;4982226;28;20037;-85
2023/09/11 06:21:24;;;;;;;24.60;18.17;;;;;;;22.56;100.00;101113.88;4984998;28;20384;-85
2023/09/11 06:23:49;;;;;;;24.83;18.17;;;;;;;22.56;100.00;101128.16;4986978;28;20049;-85
2023/09/11 06:26:15;;;;;;;30.25;19.13;;;;;;;22.67;100.00;101137.19;4993359;28;20521;-90
2023/09/11 06:28:41;;;;;;;28.23;18.48;;;;;;;22.43;100.00;101134.66;4988408;28;20499;-90
2023/09/11 06:31:07;;;;;;;30.92;18.02;;;;;;;22.34;100.00;101134.50;4987428;28;20121;-88
2023/09/11 06:33:32;;;;;;;31.63;18.77;;;;;;;22.39;100.00;101131.13;4978082;28;20104;-89
2023/09/11 06:35:58;;;;;;;30.40;17.90;;;;;;;22.53;100.00;101115.59;4988918;28;20771;-91
2023/09/11 06:38:23;;;;;;;28.90;18.33;;;;;;;22.89;100.00;101135.22;4978588;28;20030;-90
2023/09/11 06:40:49;;;;;;;29.25;18.83;;;;;;;22.77;100.00;101130.34;4974207;28;20073;-89
2023/09/11 06:43:14;;;;;;;29.02;18.30;;;;;;;22.69;100.00;101123.25;4997177;28;20026;-92
2023/09/11 06:45:41;;;;;;;26.60;18.23;;;;;;;22.68;100.00;101128.19;4991055;28;20532;-88
2023/09/11 06:48:09;;;;;;;23.63;17.08;;;;;;;22.94;100.00;101133.88;4992920;28;20038;-90
2023/09/11 06:50:35;;;;;;;33.60;19.60;;;;;;;22.78;100.00;101137.63;4991448;28;20035;-90
2023/09/11 06:53:00;;;;;;;27.85;18.73;;;;;;;22.87;100.00;101123.47;4986435;28;20041;-93
2023/09/11 06:55:25;;;;;;;26.45;18.10;;;;;;;23.14;100.00;101130.78;4988547;28;20045;-92
2023/09/11 06:57:59;;;;;;;21.98;16.88;;;;;;;23.26;100.00;101129.94;4998107;28;20034;-92
2023/09/11 07:00:24;;;;;;;33.15;18.80;;;;;;;23.11;100.00;101112.50;4996665;28;20029;-92
2023/09/11 07:02:50;;;;;;;24.98;17.60;;;;;;;23.04;100.00;101120.50;5005487;28;20038;-92
2023/09/11 07:05:16;;;;;;;28.55;16.98;;;;;;;23.12;100.00;101114.09;4976965;28;20030;-92
2023/09/11 07:07:42;;;;;;;24.83;17.23;;;;;;;23.22;100.00;101114.19;4996504;28;20029;-91
2023/09/11 07:10:12;;;;;;;25.35;16.77;;;;;;;23.10;100.00;101128.03;4996243;28;20055;-91
2023/09/11 07:12:38;;;;;;;23.42;16.88;;;;;;;23.19;100.00;101112.25;5006584;28;20030;-91
2023/09/11 07:15:09;;;;;;;23.63;16.70;;;;;;;23.09;100.00;101103.59;4998910;28;20117;-93
2023/09/11 07:17:40;;;;;;;27.67;19.15;;;;;;;22.96;100.00;101133.38;5017177;28;20041;-93
2023/09/11 07:20:33;;;;;;;23.33;16.50;;;;;;;22.79;100.00;101115.59;5003536;28;20553;-93
2023/09/11 07:22:59;;;;;;;29.13;18.73;;;;;;;22.71;100.00;101106.47;4998750;28;20386;-93
2023/09/11 07:25:24;;;;;;;25.17;18.75;;;;;;;23.03;100.00;101133.19;4992374;28;20021;-92
2023/09/11 07:28:47;;;;;;;30.25;17.45;;;;;;;22.85;100.00;101142.31;5002701;28;20033;-92
2023/09/11 07:31:37;;;;;;;30.63;19.55;;;;;;;22.72;100.00;101114.56;4918506;29;20039;-92
2023/09/11 07:34:39;;;;;;;29.15;17.95;;;;;;;22.98;100.00;101116.59;4903632;29;20052;-92
2023/09/11 07:37:49;;;;;;;31.33;18.90;;;;;;;23.02;100.00;101117.31;4911173;29;20041;-92
2023/09/11 07:40:21;;;;;;;25.50;16.25;;;;;;;22.97;100.00;101124.38;4932334;28;20048;-91
2023/09/11 07:42:47;;;;;;;24.92;16.08;;;;;;;23.04;100.00;101137.63;5009632;28;20040;-91
2023/09/11 07:45:23;;;;;;;27.48;15.40;;;;;;;23.28;100.00;101147.44;5014656;28;20112;-88
2023/09/11 07:47:58;;;;;;;21.58;16.88;;;;;;;23.32;100.00;101127.31;5008601;28;20402;-88
2023/09/11 07:51:03;;;;;;;22.42;14.23;;;;;;;23.39;100.00;101157.69;4993000;28;20152;-88
2023/09/11 07:53:34;;;;;;;22.48;14.82;;;;;;;23.30;100.00;101141.25;4986607;28;20042;-88
2023/09/11 07:56:12;;;;;;;27.15;16.73;;;;;;;23.31;100.00;101129.34;4999362;28;20040;-88
2023/09/11 07:58:41;;;;;;;31.38;17.15;;;;;;;23.19;100.00;101124.50;4998244;28;20071;-89
2023/09/11 08:01:12;;;;;;;24.15;15.95;;;;;;;23.56;100.00;101139.13;5008987;28;20037;-89
2023/09/11 08:03:56;;;;;;;22.00;14.98;;;;;;;23.42;100.00;101139.63;5012969;28;20030;-88
2023/09/11 08:06:25;;;;;;;22.67;14.90;;;;;;;23.50;100.00;101132.41;5015188;28;20660;-89
2023/09/11 08:08:58;;;;;;;23.05;14.90;;;;;;;23.34;100.00;101131.31;4997047;28;20022;-88
2023/09/11 08:11:30;;;;;;;24.98;15.15;;;;;;;23.68;100.00;101161.13;5013345;28;20038;-88
2023/09/11 08:13:55;;;;;;;;;;;;;;;23.65;100.00;101159.19;5011575;28;20045;-89
2023/09/11 08:16:21;;;;;;;20.17;13.93;;;;;;;23.56;100.00;101133.41;5002243;28;20357;-88
2023/09/11 08:18:46;;;;;;;22.65;13.90;;;;;;;23.52;100.00;101129.88;5003215;28;20037;-88
2023/09/11 08:22:03;;;;;;;18.42;13.43;;;;;;;23.69;100.00;101153.34;4995524;28;20492;-89
2023/09/11 08:24:50;;;;;;;26.65;14.57;;;;;;;23.65;100.00;101155.53;4999532;28;20034;-89
2023/09/11 08:27:16;;;;;;;16.80;12.68;;;;;;;23.63;100.00;101141.72;5017802;28;20029;-88
2023/09/11 08:29:42;;;;;;;22.65;13.48;;;;;;;23.54;100.00;101122.44;5000079;28;20057;-88
2023/09/11 08:35:21;;;;;;;17.05;12.27;;;;;;;23.70;100.00;101132.91;4987744;28;20033;-88
2023/09/11 08:37:47;;;;;;;20.58;13.75;;;;;;;23.72;100.00;101141.00;4990521;28;20034;-88
2023/09/11 08:40:12;;;;;;;15.40;11.73;;;;;;;23.94;100.00;101159.00;4998431;28;20686;-88
2023/09/11 08:42:38;;;;;;;20.02;11.48;;;;;;;23.87;100.00;101150.69;4990127;28;20080;-87
2023/09/11 08:45:04;;;;;;;17.95;12.70;;;;;;;23.86;100.00;101148.28;4995183;28;20087;-88
2023/09/11 08:47:30;;;;;;;16.80;11.52;;;;;;;23.98;100.00;101166.66;4996128;28;20037;-89
2023/09/11 08:50:02;;;;;;;16.10;11.02;;;;;;;23.89;100.00;101147.38;4999375;28;20025;-88
2023/09/11 08:52:30;;;;;;;16.90;11.77;;;;;;;23.91;100.00;101142.78;5003591;28;20034;-89
2023/09/11 08:55:02;;;;;;;24.15;12.38;;;;;;;23.88;100.00;101151.47;4995864;28;20066;-90
2023/09/11 08:57:31;;;;;;;19.00;11.93;;;;;;;23.99;100.00;101151.91;4988881;28;20033;-90
2023/09/11 09:00:00;;;;;;;14.75;11.15;;;;;;;24.09;100.00;101161.31;4989576;28;20108;-89
2023/09/11 09:02:27;;;;;;;14.73;11.98;;;;;;;24.19;100.00;101159.34;4992836;28;20182;-90
2023/09/11 09:04:54;;;;;;;16.02;11.48;;;;;;;24.14;100.00;101152.16;5006116;28;20482;-90
2023/09/11 09:07:21;;;;;;;16.10;10.63;;;;;;;24.26;100.00;101153.34;5018956;28;20506;-90
2023/09/11 09:09:47;;;;;;;16.95;11.45;;;;;;;24.21;100.00;101162.53;4996699;28;20021;-90
2023/09/11 09:12:13;;;;;;;18.15;11.25;;;;;;;24.29;100.00;101163.84;5020791;28;20103;-90
2023/09/11 09:14:39;;;;;;;13.95;11.48;;;;;;;24.02;100.00;101156.69;4989021;28;20050;-90
2023/09/11 09:17:06;;;;;;;18.95;12.70;;;;;;;24.07;100.00;101158.91;5012240;28;20076;-91
2023/09/11 09:19:33;;;;;;;14.18;10.30;;;;;;;24.09;100.00;101150.69;4994108;28;20073;-90
2023/09/11 09:22:05;;;;;;;17.38;11.60;;;;;;;24.20;100.00;101158.84;4997473;28;20025;-90
2023/09/11 09:24:34;;;;;;;14.30;11.02;;;;;;;24.34;100.00;101166.09;5008731;28;20044;-90
2023/09/11 09:27:02;;;;;;;18.35;12.20;;;;;;;24.18;100.00;101146.28;5012196;28;20022;-90
2023/09/11 09:29:48;;;;;;;20.77;12.55;;;;;;;24.00;100.00;101158.41;5011998;28;20109;-89
2023/09/11 09:32:14;;;;;;;21.85;14.25;;;;;;;24.04;100.00;101154.16;5012747;28;20030;-90
2023/09/11 09:34:49;;;;;;;22.13;14.50;;;;;;;24.09;100.00;101178.47;5008064;28;20040;-91
2023/09/11 09:37:19;;;;;;;19.20;12.85;;;;;;;23.98;100.00;101178.09;5015360;28;20120;-91
2023/09/11 09:39:48;;;;;;;21.58;13.93;;;;;;;24.19;100.00;101176.50;5002334;28;20036;-90
2023/09/11 09:42:14;;;;;;;16.08;12.00;;;;;;;24.15;100.00;101170.91;5004319;28;20064;-89
2023/09/11 09:44:41;;;;;;;21.45;14.40;;;;;;;24.33;100.00;101171.03;5016889;28;20090;-90
2023/09/11 09:47:16;;;;;;;18.55;12.55;;;;;;;24.65;100.00;101171.09;5009139;28;20037;-91
2023/09/11 09:49:53;;;;;;;23.42;14.35;;;;;;;24.57;100.00;101181.22;5004731;28;20061;-91
2023/09/11 09:52:20;;;;;;;25.15;15.95;;;;;;;24.38;100.00;101178.22;5001053;28;20033;-90
2023/09/11 09:54:54;;;;;;;25.05;16.63;;;;;;;24.31;100.00;101176.41;4995455;28;20567;-89
2023/09/11 09:57:21;;;;;;;22.65;16.67;;;;;;;24.26;100.00;101148.41;5015876;28;20036;-88
2023/09/11 09:59:54;;;;;;;26.42;17.85;;;;;;;24.33;100.00;101167.38;5019274;28;20048;-88
2023/09/11 10:02:34;;;;;;;27.35;17.23;;;;;;;24.39;100.00;101167.56;4997385;28;20116;-88
2023/09/11 10:05:05;;;;;;;28.70;18.35;;;;;;;24.64;100.00;101160.88;5019840;28;20032;-88
2023/09/11 10:07:44;;;;;;;22.63;15.77;;;;;;;24.50;100.00;101168.78;4999312;28;20058;-88
2023/09/11 10:10:35;;;;;;;24.92;17.33;;;;;;;24.45;100.00;101143.59;4999974;28;20037;-88
2023/09/11 10:13:04;;;;;;;29.35;19.67;;;;;;;24.83;100.00;101162.56;5020466;28;20057;-94
2023/09/11 10:15:30;;;;;;;25.48;16.73;;;;;;;24.72;100.00;101134.38;5019785;28;20065;-90
2023/09/11 10:17:56;;;;;;;28.77;17.95;;;;;;;24.80;100.00;101154.13;5004242;28;20026;-93
2023/09/11 10:20:23;;;;;;;24.60;16.13;;;;;;;25.13;100.00;101145.78;5019255;28;20025;-96
2023/09/11 10:23:00;;;;;;;22.52;15.10;;;;;;;25.51;99.67;101141.75;4999298;28;20611;-93
2023/09/11 10:25:29;;;;;;;21.73;13.93;;;;;;;25.24;99.82;101139.66;5010967;28;20029;-93
2023/09/11 10:28:02;;;;;;;21.25;14.48;;;;;;;25.66;98.60;101148.47;5016251;28;21107;-90
2023/09/11 10:30:50;;;;;;;20.05;13.25;;;;;;;25.35;94.02;101149.38;4991223;28;20043;-96
2023/09/11 10:33:21;;;;;;;17.95;11.73;;;;;;;25.26;97.23;101142.84;5019366;28;20030;-94
2023/09/11 10:35:51;;;;;;;23.92;11.48;;;;;;;25.40;96.87;101141.41;5021452;28;20036;-91
2023/09/11 10:38:20;;;;;;;16.35;10.88;;;;;;;25.83;94.71;101125.22;5028864;28;20517;-95
2023/09/11 10:40:47;;;;;;;20.55;11.10;;;;;;;25.86;93.49;101112.78;5005069;28;20121;-93
2023/09/11 10:43:14;;;;;;;16.40;11.60;;;;;;;25.93;95.48;101115.31;4996831;28;20060;-93
2023/09/11 10:45:41;;;;;;;17.17;12.15;;;;;;;25.65;96.91;101112.44;5024703;28;20038;-94
2023/09/11 10:48:24;;;;;;;16.73;12.15;;;;;;;25.67;96.31;101126.31;4996163;28;20491;-92
2023/09/11 10:50:49;;;;;;;22.30;12.10;;;;;;;25.73;98.14;101119.47;5015303;28;20064;-91
2023/09/11 10:53:15;;;;;;;18.80;11.90;;;;;;;26.09;93.50;101135.06;5014295;28;20054;-90
2023/09/11 10:55:40;;;;;;;15.68;10.02;;;;;;;26.05;94.13;101134.44;5002067;28;20034;-93
2023/09/11 10:58:07;;;;;;;14.65;11.25;;;;;;;25.88;99.29;101122.47;5000533;28;20067;-93
2023/09/11 11:00:37;;;;;;;18.30;11.48;;;;;;;25.74;96.83;101125.97;5017223;28;20052;-94
2023/09/11 11:03:04;;;;;;;17.42;10.80;;;;;;;26.23;92.10;101129.97;4998962;28;20030;-90
2023/09/11 11:05:32;;;;;;;17.10;10.65;;;;;;;26.27;93.12;101121.94;5014115;28;20022;-94
2023/09/11 11:07:57;;;;;;;16.48;9.80;;;;;;;26.81;91.05;101137.41;5012374;28;20033;-92
2023/09/11 11:10:23;;;;;;;16.63;10.25;;;;;;;26.65;90.36;101134.94;4996533;28;20038;-91